Time;durP1;ratioP1;P1;durP2;ratioP2;P2;SDS_P1;SDS_P2;PMS_P1;PMS_P2;Temp;Humidity;BMP_temperature;BMP_pressure;BME280_temperature;BME280_humidity;BME280_pressure;Samples;Min_cycle;Max_cycle;Signal;HPM_P1;HPM_P2
2022/09/11 00:01:34;;;;;;;21.53;18.00;;;;;;;15.65;87.31;100266.94;5095428;28;20487;-68
2022/09/11 00:04:01;;;;;;;23.97;17.90;;;;;;;15.60;87.59;100272.84;5116268;28;20897;-69
2022/09/11 00:06:29;;;;;;;20.70;18.50;;;;;;;15.59;87.38;100273.03;5100851;28;20499;-68
2022/09/11 00:08:59;;;;;;;21.27;18.80;;;;;;;15.54;87.51;100268.16;5113990;28;20522;-69
2022/09/11 00:11:27;;;;;;;24.73;20.80;;;;;;;15.50;87.87;100265.97;5119777;28;20901;-68
2022/09/11 00:13:55;;;;;;;20.90;18.70;;;;;;;15.45;88.35;100271.88;5116028;28;20454;-67
2022/09/11 00:16:25;;;;;;;23.20;19.70;;;;;;;15.40;88.52;100276.94;5112413;28;20487;-69
2022/09/11 00:18:55;;;;;;;23.93;19.40;;;;;;;15.35;88.87;100274.75;5099878;28;20447;-68
2022/09/11 00:21:21;;;;;;;24.53;20.00;;;;;;;15.36;89.02;100268.38;5101079;28;20475;-69
2022/09/11 00:23:48;;;;;;;23.20;20.07;;;;;;;15.32;89.14;100277.78;5103754;28;20469;-68
2022/09/11 00:26:15;;;;;;;22.70;20.27;;;;;;;15.36;89.11;100276.44;5120990;28;20480;-69
2022/09/11 00:28:42;;;;;;;22.10;19.03;;;;;;;15.33;89.12;100279.47;5119614;28;20438;-69
2022/09/11 00:31:12;;;;;;;27.93;21.00;;;;;;;15.32;89.48;100268.88;5104932;28;20490;-68
2022/09/11 00:33:39;;;;;;;27.23;21.30;;;;;;;15.30;89.19;100279.81;5098757;28;20442;-69
2022/09/11 00:36:11;;;;;;;24.77;21.50;;;;;;;15.26;89.34;100283.88;5098322;28;20478;-68
2022/09/11 00:38:39;;;;;;;25.67;22.57;;;;;;;15.21;89.64;100283.53;5099425;28;20463;-68
2022/09/11 00:41:10;;;;;;;28.87;23.03;;;;;;;15.17;89.50;100284.88;5107206;28;20478;-67
2022/09/11 00:43:52;;;;;;;27.63;22.10;;;;;;;15.15;89.66;100292.28;5120379;28;20508;-67
2022/09/11 00:46:19;;;;;;;34.27;24.97;;;;;;;15.13;89.78;100299.69;5102379;28;20462;-67
2022/09/11 00:48:48;;;;;;;29.17;23.70;;;;;;;15.10;89.86;100291.94;5085721;28;20457;-68
2022/09/11 00:51:19;;;;;;;31.27;23.83;;;;;;;15.06;90.16;100288.75;5112486;28;20534;-67
2022/09/11 00:53:47;;;;;;;32.10;24.10;;;;;;;15.03;90.28;100286.41;5100491;28;20486;-67
2022/09/11 00:56:13;;;;;;;32.17;25.23;;;;;;;14.96;89.91;100288.09;5099454;28;20502;-67
2022/09/11 00:58:43;;;;;;;34.20;24.70;;;;;;;14.95;90.04;100298.03;5116222;28;20468;-68
2022/09/11 01:01:10;;;;;;;37.47;26.07;;;;;;;14.75;90.87;100288.59;5105109;28;20473;-67
2022/09/11 01:03:37;;;;;;;36.93;25.30;;;;;;;14.81;91.08;100282.53;5111916;28;20468;-68
2022/09/11 01:06:05;;;;;;;39.40;26.43;;;;;;;14.77;91.05;100292.81;5105588;28;20498;-68
2022/09/11 01:08:35;;;;;;;36.27;25.70;;;;;;;14.78;91.60;100291.78;5100337;28;20469;-68
2022/09/11 01:11:07;;;;;;;42.10;29.03;;;;;;;14.83;91.54;100296.66;5097757;28;20508;-69
2022/09/11 01:13:37;;;;;;;38.93;27.93;;;;;;;14.83;91.39;100286.72;5106658;28;20455;-68
2022/09/11 01:16:12;;;;;;;41.40;30.00;;;;;;;14.83;91.24;100291.28;5099524;28;20490;-68
2022/09/11 01:18:44;;;;;;;47.83;30.73;;;;;;;14.81;91.44;100302.22;5111153;28;20504;-68
2022/09/11 01:21:28;;;;;;;41.43;29.77;;;;;;;14.79;91.52;100306.06;5103973;28;20459;-67
2022/09/11 01:24:01;;;;;;;49.70;31.50;;;;;;;14.80;91.57;100318.53;5098082;28;20458;-68
2022/09/11 01:26:39;;;;;;;43.33;29.70;;;;;;;14.78;91.80;100307.94;5102235;28;20539;-67
2022/09/11 01:29:11;;;;;;;42.30;27.63;;;;;;;14.85;91.75;100318.88;5080809;28;20448;-67
2022/09/11 01:31:44;;;;;;;41.50;29.90;;;;;;;14.76;91.34;100318.03;5084611;28;20475;-68
2022/09/11 01:34:15;;;;;;;48.80;31.90;;;;;;;14.77;93.38;100321.53;5105095;28;20465;-67
2022/09/11 01:36:46;;;;;;;50.77;31.57;;;;;;;14.79;92.70;100327.59;5118348;28;21474;-67
2022/09/11 01:39:13;;;;;;;48.27;32.27;;;;;;;14.75;93.15;100329.78;5101444;28;20439;-67
2022/09/11 01:41:44;;;;;;;46.93;32.50;;;;;;;14.71;92.96;100331.13;5099777;28;20474;-67
2022/09/11 01:44:16;;;;;;;49.53;33.80;;;;;;;14.62;93.12;100327.59;5100371;28;20462;-67
2022/09/11 01:46:45;;;;;;;52.53;34.43;;;;;;;14.66;93.31;100342.38;5107080;28;20466;-67
2022/09/11 01:49:15;;;;;;;56.33;35.43;;;;;;;14.66;93.14;100331.63;5101660;28;20455;-68
2022/09/11 01:51:42;;;;;;;60.43;36.90;;;;;;;14.72;93.34;100332.81;5113211;28;20502;-67
2022/09/11 01:54:11;;;;;;;53.67;34.80;;;;;;;14.77;92.92;100340.38;5111647;28;20494;-67
2022/09/11 01:56:42;;;;;;;56.27;35.13;;;;;;;14.79;93.05;100351.81;5095648;28;20921;-68
2022/09/11 01:59:11;;;;;;;62.87;36.87;;;;;;;14.82;93.10;100351.50;5117514;28;20435;-67
2022/09/11 02:01:43;;;;;;;62.53;36.27;;;;;;;14.88;93.57;100354.38;5110659;28;20463;-67
2022/09/11 02:04:13;;;;;;;67.80;38.37;;;;;;;14.96;93.41;100350.84;5105974;28;20458;-67
2022/09/11 02:06:42;;;;;;;74.57;40.60;;;;;;;14.99;93.58;100345.13;5110625;28;20469;-68
2022/09/11 02:09:11;;;;;;;66.07;39.27;;;;;;;15.11;93.67;100342.94;5097949;28;20428;-67
2022/09/11 02:11:40;;;;;;;70.60;39.97;;;;;;;15.23;93.63;100346.16;5100724;28;20506;-68
2022/09/11 02:14:10;;;;;;;75.47;42.90;;;;;;;15.24;93.28;100347.81;5111515;28;20443;-67
2022/09/11 02:16:49;;;;;;;79.50;41.10;;;;;;;15.42;93.15;100345.78;5101691;28;20502;-68
2022/09/11 02:19:17;;;;;;;74.43;41.60;;;;;;;15.38;92.55;100349.00;5115236;28;20517;-69
2022/09/11 02:21:46;;;;;;;78.87;43.00;;;;;;;15.45;92.40;100347.31;5103076;28;20492;-68
2022/09/11 02:24:13;;;;;;;76.10;43.30;;;;;;;15.55;92.36;100361.44;5089036;28;20491;-67
2022/09/11 02:26:42;;;;;;;73.27;40.50;;;;;;;15.54;92.14;100354.38;5105701;28;20479;-68
2022/09/11 02:29:09;;;;;;;63.93;39.93;;;;;;;15.61;92.01;100349.97;5098906;28;20515;-67
2022/09/11 02:31:36;;;;;;;73.13;43.03;;;;;;;15.78;91.06;100356.22;5107985;28;20478;-67
2022/09/11 02:34:04;;;;;;;77.53;43.20;;;;;;;15.66;91.06;100360.25;5123076;28;20468;-68
2022/09/11 02:36:43;;;;;;;66.03;39.90;;;;;;;15.63;91.66;100366.81;5113122;28;20598;-67
2022/09/11 02:39:24;;;;;;;66.53;41.07;;;;;;;15.57;91.76;100361.25;5120155;28;20510;-67
2022/09/11 02:42:07;;;;;;;68.60;39.90;;;;;;;15.56;92.53;100376.59;5113200;28;20494;-68
2022/09/11 02:44:37;;;;;;;70.50;40.60;;;;;;;15.68;91.87;100368.19;5110191;28;20450;-67
2022/09/11 02:47:11;;;;;;;69.47;40.80;;;;;;;15.67;92.09;100377.28;5117802;28;20510;-68
2022/09/11 02:49:49;;;;;;;72.30;42.87;;;;;;;15.49;92.37;100378.31;5098667;28;20463;-67
2022/09/11 02:52:21;;;;;;;74.33;42.50;;;;;;;15.40;92.96;100380.16;5094713;28;20478;-67
2022/09/11 02:54:53;;;;;;;74.37;43.40;;;;;;;15.48;92.99;100381.16;5098964;28;20475;-68
2022/09/11 02:57:25;;;;;;;73.33;43.77;;;;;;;15.54;93.16;100391.28;5096111;28;20475;-67
2022/09/11 02:59:54;;;;;;;80.20;44.47;;;;;;;15.55;92.89;100383.00;5110175;28;20925;-68
2022/09/11 03:02:21;;;;;;;76.93;44.13;;;;;;;15.57;93.23;100389.06;5100886;28;20477;-68
2022/09/11 03:04:49;;;;;;;84.27;45.97;;;;;;;15.60;93.12;100383.31;5118397;28;20450;-68
2022/09/11 03:07:16;;;;;;;82.53;45.50;;;;;;;15.58;93.26;100388.03;5115847;28;20479;-68
2022/09/11 03:09:42;;;;;;;84.87;44.40;;;;;;;15.65;93.46;100387.38;5099467;28;20448;-67
2022/09/11 03:12:09;;;;;;;83.80;46.67;;;;;;;15.57;93.21;100385.53;5097767;28;20567;-69
2022/09/11 03:14:37;;;;;;;83.40;46.13;;;;;;;15.61;93.28;100385.03;5100817;28;20512;-67
2022/09/11 03:17:03;;;;;;;79.73;43.10;;;;;;;15.62;93.47;100385.84;5104799;28;20529;-68
2022/09/11 03:19:30;;;;;;;85.57;47.17;;;;;;;15.64;93.20;100386.56;5104660;28;20452;-67
2022/09/11 03:21:58;;;;;;;80.27;44.00;;;;;;;15.68;93.14;100392.44;5100390;28;20518;-68
2022/09/11 03:24:26;;;;;;;82.67;45.87;;;;;;;15.71;92.84;100384.00;5110938;28;20447;-68
2022/09/11 03:26:52;;;;;;;88.03;47.50;;;;;;;15.72;92.80;100386.50;5105866;28;20521;-68
2022/09/11 03:29:19;;;;;;;81.87;46.87;;;;;;;15.66;93.06;100376.44;5115662;28;21176;-68
2022/09/11 03:31:46;;;;;;;85.00;46.63;;;;;;;15.60;93.31;100371.72;5102719;28;20491;-68
2022/09/11 03:34:12;;;;;;;82.47;46.97;;;;;;;15.68;93.27;100382.50;5101177;28;20494;-68
2022/09/11 03:36:39;;;;;;;89.83;47.40;;;;;;;15.67;93.15;100379.97;5100362;28;20480;-68
2022/09/11 03:39:07;;;;;;;91.37;45.07;;;;;;;15.68;92.94;100384.34;5100767;28;20533;-68
2022/09/11 03:41:34;;;;;;;84.77;47.77;;;;;;;15.68;92.88;100382.50;5099108;28;20478;-69
2022/09/11 03:44:01;;;;;;;92.50;47.50;;;;;;;15.68;92.74;100387.88;5058365;28;1216134;-68
2022/09/11 03:46:27;;;;;;;89.37;45.87;;;;;;;15.73;93.03;100380.13;5100811;28;20228;-68
2022/09/11 03:48:54;;;;;;;93.07;46.17;;;;;;;15.77;92.75;100386.88;5114710;28;20451;-69
2022/09/11 03:51:21;;;;;;;88.37;48.63;;;;;;;15.74;92.63;100392.56;5118995;28;20509;-68
2022/09/11 03:53:48;;;;;;;80.63;43.50;;;;;;;15.79;92.41;100395.63;5103980;28;20448;-69
2022/09/11 03:56:16;;;;;;;86.00;45.00;;;;;;;15.74;92.05;100395.28;5121376;28;21055;-68
2022/09/11 03:58:43;;;;;;;79.00;45.30;;;;;;;15.77;91.85;100404.91;5109705;28;20436;-68
2022/09/11 04:01:11;;;;;;;84.60;47.27;;;;;;;15.77;91.89;100404.91;5109774;28;20483;-68
2022/09/11 04:03:38;;;;;;;75.77;42.90;;;;;;;15.70;92.01;100401.19;5100828;28;20723;-67
2022/09/11 04:06:05;;;;;;;76.73;42.40;;;;;;;15.70;92.05;100403.88;5100776;28;20512;-68
2022/09/11 04:08:32;;;;;;;75.77;42.57;;;;;;;15.78;92.25;100409.31;5109874;28;20542;-68
2022/09/11 04:11:00;;;;;;;81.00;43.33;;;;;;;15.75;91.85;100406.94;5104158;28;20530;-68
2022/09/11 04:13:30;;;;;;;81.10;44.63;;;;;;;15.73;92.11;100412.47;5112174;28;20557;-68
2022/09/11 04:16:01;;;;;;;73.53;43.10;;;;;;;15.68;92.59;100411.31;5121198;27;21266;-68
2022/09/11 04:18:29;;;;;;;79.80;43.30;;;;;;;15.66;92.05;100408.78;5114568;28;20435;-68
2022/09/11 04:20:55;;;;;;;85.00;45.60;;;;;;;15.80;91.59;100413.50;5108360;28;20828;-68
2022/09/11 04:23:22;;;;;;;87.27;46.10;;;;;;;15.63;91.70;100415.34;5120530;28;20430;-68
2022/09/11 04:25:49;;;;;;;82.47;42.67;;;;;;;15.55;92.38;100414.50;5118073;28;20928;-69
2022/09/11 04:28:15;;;;;;;84.47;44.40;;;;;;;15.55;92.91;100415.31;5104305;28;20454;-68
2022/09/11 04:30:43;;;;;;;78.20;44.73;;;;;;;15.59;92.71;100419.38;5106307;28;20459;-68
2022/09/11 04:33:10;;;;;;;81.43;43.93;;;;;;;15.47;93.00;100420.75;5100154;28;20475;-67
2022/09/11 04:35:38;;;;;;;85.33;44.90;;;;;;;15.44;93.35;100411.13;5111495;28;20467;-69
2022/09/11 04:38:05;;;;;;;88.90;46.77;;;;;;;15.41;93.44;100410.63;5106034;28;20932;-69
2022/09/11 04:40:32;;;;;;;88.27;46.40;;;;;;;15.39;94.18;100418.03;5108191;28;20512;-69
2022/09/11 04:42:59;;;;;;;85.23;45.93;;;;;;;15.37;94.08;100420.91;5104946;28;20564;-67
2022/09/11 04:45:26;;;;;;;98.47;47.60;;;;;;;15.37;94.40;100423.59;5119014;28;20454;-68
2022/09/11 04:47:54;;;;;;;101.50;49.20;;;;;;;15.36;94.28;100424.63;5103018;28;20508;-68
2022/09/11 04:50:21;;;;;;;100.40;47.90;;;;;;;15.33;94.81;100429.47;5080176;28;20937;-69
2022/09/11 04:52:48;;;;;;;96.60;46.17;;;;;;;15.31;95.08;100426.97;5100360;28;20507;-69
2022/09/11 04:55:15;;;;;;;90.37;46.20;;;;;;;15.35;94.85;100435.56;5099567;28;20455;-68
2022/09/11 04:57:41;;;;;;;87.20;44.40;;;;;;;15.23;95.19;100437.72;5110247;28;20434;-68
2022/09/11 05:00:10;;;;;;;110.27;47.07;;;;;;;15.04;96.42;100431.63;5101454;28;20470;-68
2022/09/11 05:02:36;;;;;;;100.77;45.33;;;;;;;15.19;96.24;100444.44;5087892;28;20478;-68
2022/09/11 05:05:06;;;;;;;96.27;45.47;;;;;;;15.25;96.22;100443.78;5118648;28;20521;-68
2022/09/11 05:07:32;;;;;;;101.70;47.80;;;;;;;15.28;96.19;100434.53;5119049;28;20450;-70
2022/09/11 05:09:59;;;;;;;94.13;45.80;;;;;;;15.25;96.31;100447.31;5098637;28;20443;-69
2022/09/11 05:12:26;;;;;;;108.63;47.60;;;;;;;15.28;96.02;100439.94;5103706;28;20482;-71
2022/09/11 05:14:53;;;;;;;98.00;45.33;;;;;;;15.33;95.74;100443.81;5098378;28;20486;-71
2022/09/11 05:17:20;;;;;;;105.63;47.13;;;;;;;15.35;95.70;100441.78;5089428;28;21081;-67
2022/09/11 05:19:48;;;;;;;95.93;46.70;;;;;;;15.37;95.64;100445.16;5094328;28;20449;-68
2022/09/11 05:22:16;;;;;;;106.47;48.67;;;;;;;15.41;95.59;100459.13;5103673;28;20490;-68
2022/09/11 05:24:42;;;;;;;108.67;48.73;;;;;;;15.38;95.47;100457.63;5111121;28;20477;-67
2022/09/11 05:27:10;;;;;;;104.07;47.37;;;;;;;15.26;95.91;100461.66;5087996;28;20511;-68
2022/09/11 05:29:37;;;;;;;103.37;47.17;;;;;;;15.17;96.11;100470.69;5096489;28;21006;-69
2022/09/11 05:32:04;;;;;;;94.37;44.57;;;;;;;15.32;96.11;100466.34;5094590;28;21281;-68
2022/09/11 05:34:31;;;;;;;97.07;44.50;;;;;;;15.39;95.52;100470.06;5096694;28;20464;-68
2022/09/11 05:36:58;;;;;;;93.57;43.77;;;;;;;15.17;96.00;100474.25;5100132;28;20503;-69
2022/09/11 05:39:26;;;;;;;96.03;41.70;;;;;;;15.15;96.65;100478.09;5104522;28;20436;-72
2022/09/11 05:41:54;;;;;;;99.53;44.40;;;;;;;15.27;96.36;100479.47;5098444;28;20903;-68
2022/09/11 05:44:20;;;;;;;88.23;43.37;;;;;;;15.25;96.10;100476.09;5100366;28;20783;-68
2022/09/11 05:46:48;;;;;;;96.10;43.43;;;;;;;15.19;96.50;100488.41;5116331;28;21032;-69
2022/09/11 05:49:14;;;;;;;79.57;38.33;;;;;;;15.26;96.55;100480.50;5119161;28;20476;-71
2022/09/11 05:51:41;;;;;;;77.43;40.70;;;;;;;15.36;95.84;100494.66;5119665;28;20489;-70
2022/09/11 05:54:08;;;;;;;83.60;40.33;;;;;;;15.23;96.06;100499.69;5102444;28;20446;-69
2022/09/11 05:56:36;;;;;;;90.57;44.80;;;;;;;15.15;96.56;100511.25;5094670;28;20495;-70
2022/09/11 05:59:04;;;;;;;82.30;39.17;;;;;;;15.13;96.28;100498.97;5092330;28;20523;-69
2022/09/11 06:01:30;;;;;;;79.33;39.80;;;;;;;15.06;96.54;100507.69;5099607;28;20479;-69
2022/09/11 06:03:57;;;;;;;81.17;40.27;;;;;;;15.18;95.97;100510.09;5099086;28;21155;-69
2022/09/11 06:06:24;;;;;;;73.17;38.27;;;;;;;15.18;96.00;100512.78;5098710;28;21009;-69
2022/09/11 06:08:54;;;;;;;80.50;39.00;;;;;;;15.23;95.72;100518.53;5099627;28;20427;-69
2022/09/11 06:11:22;;;;;;;80.13;40.93;;;;;;;15.21;95.43;100521.38;5098759;28;20478;-69
2022/09/11 06:13:50;;;;;;;82.03;37.13;;;;;;;15.38;95.37;100522.28;5092351;28;20566;-70
2022/09/11 06:16:19;;;;;;;75.83;36.70;;;;;;;15.35;94.49;100529.84;5098517;28;20506;-69
2022/09/11 06:18:47;;;;;;;73.17;36.03;;;;;;;15.57;93.75;100522.97;5117377;28;20471;-69
2022/09/11 06:21:17;;;;;;;75.20;36.77;;;;;;;15.58;92.84;100533.56;5100880;28;20495;-71
2022/09/11 06:23:44;;;;;;;67.53;33.00;;;;;;;15.59;92.89;100531.75;5108725;28;20524;-70
2022/09/11 06:26:12;;;;;;;63.70;36.83;;;;;;;15.62;92.44;100532.25;5090543;28;20921;-69
2022/09/11 06:28:39;;;;;;;69.40;34.83;;;;;;;15.65;92.48;100539.16;5098699;28;20447;-70
2022/09/11 06:31:09;;;;;;;57.20;33.33;;;;;;;15.57;92.50;100545.38;5095665;28;20475;-69
2022/09/11 06:33:37;;;;;;;62.50;33.93;;;;;;;15.70;91.62;100541.34;5105322;28;20611;-68
2022/09/11 06:36:06;;;;;;;60.73;34.20;;;;;;;15.73;91.16;100546.41;5104539;28;20527;-68
2022/09/11 06:38:33;;;;;;;63.67;33.83;;;;;;;15.57;91.87;100549.91;5110021;28;20854;-69
2022/09/11 06:41:02;;;;;;;59.73;33.23;;;;;;;15.69;91.92;100551.28;5093784;28;20528;-69
2022/09/11 06:43:29;;;;;;;56.77;31.37;;;;;;;15.78;91.62;100558.41;5115511;28;21241;-70
2022/09/11 06:46:03;;;;;;;55.50;33.30;;;;;;;15.87;90.62;100564.66;5110085;28;20504;-69
2022/09/11 06:48:31;;;;;;;53.73;31.50;;;;;;;15.73;91.11;100558.03;5103387;28;20469;-68
2022/09/11 06:51:02;;;;;;;48.83;29.87;;;;;;;15.69;91.17;100551.28;5104629;27;20479;-70
2022/09/11 06:53:29;;;;;;;52.80;30.93;;;;;;;15.72;90.86;100548.25;5099603;28;20499;-70
2022/09/11 06:55:59;;;;;;;50.37;30.40;;;;;;;15.73;90.83;100549.13;5100089;28;20483;-70
2022/09/11 06:58:26;;;;;;;49.47;29.63;;;;;;;15.87;89.91;100545.78;5098690;28;20435;-69
2022/09/11 07:00:53;;;;;;;50.40;30.60;;;;;;;16.12;89.29;100556.56;5089924;28;20498;-68
2022/09/11 07:03:19;;;;;;;47.50;30.30;;;;;;;16.03;89.37;100546.78;5102511;28;20447;-68
2022/09/11 07:05:48;;;;;;;53.80;30.03;;;;;;;15.89;90.02;100543.75;5102040;28;20510;-69
2022/09/11 07:08:14;;;;;;;57.50;33.13;;;;;;;15.65;90.71;100557.19;5114529;28;20432;-69
2022/09/11 07:10:41;;;;;;;47.97;28.63;;;;;;;16.06;89.67;100560.78;5103771;28;20491;-70
2022/09/11 07:13:08;;;;;;;50.80;29.70;;;;;;;16.06;89.51;100566.16;5122923;28;20515;-69
2022/09/11 07:15:34;;;;;;;52.43;29.23;;;;;;;16.10;89.18;100564.81;5122050;28;20860;-69
2022/09/11 07:18:01;;;;;;;49.97;30.50;;;;;;;16.14;88.89;100563.47;5121895;28;20483;-70
2022/09/11 07:20:28;;;;;;;45.37;27.50;;;;;;;16.25;88.94;100567.69;5098078;28;20459;-70
2022/09/11 07:22:57;;;;;;;53.60;30.67;;;;;;;16.21;88.79;100565.47;5108323;28;20446;-69
2022/09/11 07:25:24;;;;;;;49.73;28.60;;;;;;;15.98;89.75;100560.78;5101674;28;20486;-70
2022/09/11 07:27:51;;;;;;;47.53;28.87;;;;;;;16.20;89.56;100559.25;5081462;28;20438;-69
2022/09/11 07:30:18;;;;;;;47.63;30.03;;;;;;;15.92;89.69;100562.28;5099227;28;20830;-70
2022/09/11 07:32:45;;;;;;;51.40;28.87;;;;;;;16.28;89.22;100561.94;5102301;28;20487;-69
2022/09/11 07:35:11;;;;;;;48.57;27.97;;;;;;;16.29;88.76;100570.88;5087928;28;20461;-69
2022/09/11 07:37:38;;;;;;;44.47;25.87;;;;;;;16.32;88.58;100567.84;5099294;28;20475;-70
2022/09/11 07:40:07;;;;;;;47.13;29.70;;;;;;;16.31;88.13;100561.59;5099643;28;20459;-68
2022/09/11 07:42:34;;;;;;;43.53;27.50;;;;;;;16.36;88.25;100575.41;5100525;28;21035;-68
2022/09/11 07:45:00;;;;;;;42.40;27.13;;;;;;;16.31;88.10;100579.66;5104160;28;20454;-69
2022/09/11 07:47:27;;;;;;;45.50;27.77;;;;;;;16.21;88.67;100581.66;5106033;28;20945;-69
2022/09/11 07:49:54;;;;;;;46.20;27.77;;;;;;;16.32;88.60;100584.03;5106603;28;20456;-68
2022/09/11 07:52:20;;;;;;;44.33;26.00;;;;;;;16.47;86.86;100582.31;5109012;28;20548;-69
2022/09/11 07:54:47;;;;;;;47.57;25.70;;;;;;;16.31;88.23;100580.47;5104202;28;20874;-70
2022/09/11 07:57:15;;;;;;;40.90;25.93;;;;;;;16.47;88.24;100582.31;5108862;28;20930;-69
2022/09/11 07:59:42;;;;;;;45.23;27.67;;;;;;;16.37;88.36;100587.06;5095581;28;20465;-70
2022/09/11 08:02:10;;;;;;;43.93;26.30;;;;;;;16.66;87.05;100583.78;5102235;28;20939;-68
2022/09/11 08:04:37;;;;;;;44.97;25.77;;;;;;;16.66;86.70;100585.66;5092959;28;20494;-70
2022/09/11 08:07:03;;;;;;;38.83;24.70;;;;;;;16.72;86.20;100583.13;5100508;28;20475;-69
2022/09/11 08:09:30;;;;;;;39.77;23.20;;;;;;;17.02;84.69;100579.84;5101634;28;20506;-69
2022/09/11 08:11:57;;;;;;;36.90;24.70;;;;;;;17.11;83.57;100589.59;5112718;28;20467;-69
2022/09/11 08:14:26;;;;;;;36.17;23.37;;;;;;;17.23;83.59;100584.66;5103045;28;20525;-69
2022/09/11 08:16:53;;;;;;;38.20;24.80;;;;;;;17.38;82.60;100596.41;5120303;28;20481;-66
2022/09/11 08:19:21;;;;;;;36.17;23.47;;;;;;;17.25;82.60;100596.97;5121346;28;20458;-69
2022/09/11 08:21:47;;;;;;;35.23;24.40;;;;;;;17.22;83.56;100591.06;5118850;28;20543;-68
2022/09/11 08:24:15;;;;;;;35.67;23.37;;;;;;;17.25;82.11;100596.97;5121631;28;21051;-69
2022/09/11 08:26:42;;;;;;;30.90;21.17;;;;;;;17.27;81.95;100594.94;5105903;28;20478;-68
2022/09/11 08:29:09;;;;;;;32.40;22.87;;;;;;;17.86;79.14;100599.03;5098414;28;21019;-68
2022/09/11 08:31:37;;;;;;;33.17;22.17;;;;;;;18.09;78.74;100607.16;5093875;28;20498;-68
2022/09/11 08:34:03;;;;;;;34.80;21.03;;;;;;;18.24;77.49;100609.88;5091297;28;20515;-68
2022/09/11 08:36:30;;;;;;;36.57;22.63;;;;;;;17.91;79.60;100612.00;5093448;28;20467;-68
2022/09/11 08:38:59;;;;;;;31.67;23.17;;;;;;;18.63;77.26;100614.28;5093352;28;20478;-68
2022/09/11 08:41:32;;;;;;;32.30;21.57;;;;;;;19.56;73.37;100617.44;5093155;28;20464;-69
2022/09/11 08:44:03;;;;;;;31.20;21.40;;;;;;;19.88;70.13;100620.78;5087077;28;20471;-68
2022/09/11 08:46:33;;;;;;;28.80;20.53;;;;;;;18.75;72.70;100625.53;5093537;28;21025;-68
2022/09/11 08:49:08;;;;;;;24.40;18.80;;;;;;;18.02;75.02;100623.25;5099746;28;20456;-68
2022/09/11 08:51:35;;;;;;;26.77;20.40;;;;;;;18.29;75.78;100622.88;5099790;28;20551;-69
2022/09/11 08:54:02;;;;;;;27.80;19.73;;;;;;;18.49;74.92;100620.50;5101617;28;20472;-68
2022/09/11 08:56:35;;;;;;;28.93;20.70;;;;;;;18.01;76.25;100623.44;5099566;28;20520;-68
2022/09/11 08:59:14;;;;;;;27.47;18.90;;;;;;;18.34;75.61;100617.78;5100851;28;20439;-68
2022/09/11 09:01:45;;;;;;;27.47;18.93;;;;;;;19.03;71.87;100619.50;5097999;28;20473;-68
2022/09/11 09:04:35;;;;;;;26.73;19.87;;;;;;;19.40;70.08;100620.38;5100141;28;20440;-68
2022/09/11 09:07:07;;;;;;;22.47;16.00;;;;;;;20.63;67.06;100627.53;5097817;28;20476;-67
2022/09/11 09:09:41;;;;;;;25.10;17.07;;;;;;;22.16;60.11;100626.53;5097704;28;20433;-68
2022/09/11 09:12:14;;;;;;;25.53;17.73;;;;;;;23.43;55.09;100631.88;5105298;28;20485;-69
2022/09/11 09:14:58;;;;;;;18.43;14.53;;;;;;;22.66;56.23;100634.34;5120905;28;21012;-69
2022/09/11 09:17:27;;;;;;;15.73;13.90;;;;;;;22.91;55.54;100635.34;5097232;28;20481;-68
2022/09/11 09:19:59;;;;;;;16.80;13.00;;;;;;;23.26;54.62;100629.63;5100305;28;20461;-69
2022/09/11 09:22:33;;;;;;;14.17;12.57;;;;;;;22.93;55.16;100635.97;5117532;28;20518;-68
2022/09/11 09:25:03;;;;;;;13.30;11.23;;;;;;;22.52;55.75;100636.22;5112464;28;20479;-69
2022/09/11 09:27:34;;;;;;;17.60;14.60;;;;;;;21.80;57.94;100635.88;5070794;28;20478;-69
2022/09/11 09:30:04;;;;;;;16.40;13.77;;;;;;;21.43;59.86;100636.13;5073101;28;20442;-69
2022/09/11 09:32:34;;;;;;;14.07;11.83;;;;;;;21.06;60.52;100651.03;5087895;28;20556;-69
2022/09/11 09:35:05;;;;;;;14.00;11.80;;;;;;;20.65;62.15;100640.91;5073662;28;20519;-68
2022/09/11 09:37:33;;;;;;;13.87;12.30;;;;;;;19.41;64.80;100649.16;5099530;28;20456;-68
2022/09/11 09:40:01;;;;;;;16.10;12.23;;;;;;;20.15;63.86;100653.59;5111950;28;20457;-68
2022/09/11 09:42:41;;;;;;;17.20;13.43;;;;;;;19.56;64.61;100653.56;5116156;28;20498;-68
2022/09/11 09:45:38;;;;;;;14.33;12.60;;;;;;;19.79;64.95;100659.88;5098167;28;20494;-68
2022/09/11 09:48:05;;;;;;;20.87;14.20;;;;;;;20.29;64.60;100650.84;5096643;28;21058;-68
2022/09/11 09:50:34;;;;;;;17.10;13.70;;;;;;;19.27;67.01;100657.16;5099821;27;20970;-67
2022/09/11 09:53:04;;;;;;;14.57;12.27;;;;;;;19.49;66.57;100652.63;5108662;28;20464;-67
2022/09/11 09:55:31;;;;;;;18.10;12.67;;;;;;;20.34;64.19;100654.81;5106436;28;20464;-67
2022/09/11 09:57:58;;;;;;;13.97;11.40;;;;;;;21.20;61.28;100646.50;5112635;28;20504;-68
2022/09/11 10:00:24;;;;;;;14.33;10.10;;;;;;;21.29;60.75;100655.34;5107060;27;20439;-69
2022/09/11 10:02:52;;;;;;;14.60;11.40;;;;;;;21.57;59.97;100660.72;5106879;28;20449;-67
2022/09/11 10:05:26;;;;;;;12.40;10.53;;;;;;;21.14;60.24;100664.44;5098086;28;20451;-68
2022/09/11 10:07:56;;;;;;;12.47;10.33;;;;;;;20.95;60.60;100662.44;5111816;28;20472;-67
2022/09/11 10:10:29;;;;;;;16.10;10.53;;;;;;;20.88;61.57;100662.38;5117702;27;20530;-69
2022/09/11 10:13:00;;;;;;;12.67;10.70;;;;;;;20.90;61.33;100663.06;5116893;28;20442;-68
2022/09/11 10:15:27;;;;;;;15.10;11.47;;;;;;;20.64;62.56;100664.53;5106466;28;20469;-67
2022/09/11 10:17:54;;;;;;;15.20;12.10;;;;;;;19.63;64.71;100661.75;5114471;28;20451;-67
2022/09/11 10:20:25;;;;;;;14.83;12.27;;;;;;;19.45;66.84;100669.47;5116399;28;20480;-68
2022/09/11 10:22:54;;;;;;;17.67;12.20;;;;;;;20.00;65.29;100667.22;5116308;28;20461;-68
2022/09/11 10:25:25;;;;;;;13.73;10.80;;;;;;;20.16;65.34;100672.41;5117497;28;20462;-69
2022/09/11 10:28:04;;;;;;;14.63;12.07;;;;;;;20.50;63.46;100677.13;5110544;28;20473;-67
2022/09/11 10:30:35;;;;;;;15.37;12.10;;;;;;;20.34;63.84;100676.53;5112447;28;20471;-67
2022/09/11 10:33:05;;;;;;;13.60;11.23;;;;;;;20.04;64.94;100674.78;5117235;28;20439;-66
2022/09/11 10:35:34;;;;;;;15.33;11.77;;;;;;;20.64;63.10;100675.41;5115212;28;20471;-68
2022/09/11 10:38:10;;;;;;;14.30;12.50;;;;;;;20.86;62.27;100675.34;5113021;28;20862;-68
2022/09/11 10:40:38;;;;;;;11.53;10.00;;;;;;;20.14;63.24;100671.78;5098259;28;20491;-68
2022/09/11 10:43:07;;;;;;;10.90;8.73;;;;;;;20.56;61.31;100678.22;5097113;28;20506;-67
2022/09/11 10:45:33;;;;;;;12.40;9.40;;;;;;;20.62;60.82;100676.63;5108670;28;20477;-67
2022/09/11 10:48:14;;;;;;;12.17;9.63;;;;;;;20.98;59.27;100672.91;5116829;28;20448;-68
2022/09/11 10:50:42;;;;;;;13.20;10.50;;;;;;;21.98;56.78;100666.09;5080754;28;20471;-68
2022/09/11 10:53:19;;;;;;;10.23;8.93;;;;;;;22.05;56.89;100671.56;5083642;28;20422;-69
2022/09/11 10:55:51;;;;;;;11.33;9.97;;;;;;;20.22;62.12;100673.50;5081816;28;20495;-67
2022/09/11 10:58:19;;;;;;;11.63;9.03;;;;;;;19.83;63.32;100667.47;5082165;28;20433;-68
2022/09/11 11:00:46;;;;;;;16.20;10.87;;;;;;;19.26;66.04;100674.44;5123343;28;20466;-67
2022/09/11 11:03:17;;;;;;;11.90;10.33;;;;;;;19.15;66.55;100675.75;5104490;28;20457;-67
2022/09/11 11:05:49;;;;;;;14.90;11.40;;;;;;;20.11;63.66;100674.88;5098034;28;20471;-68
2022/09/11 11:08:28;;;;;;;12.10;9.80;;;;;;;20.48;62.65;100676.50;5091043;28;20540;-69
2022/09/11 11:11:04;;;;;;;11.60;9.57;;;;;;;20.07;63.42;100679.00;5085555;28;20487;-66
2022/09/11 11:13:40;;;;;;;10.73;8.93;;;;;;;20.26;63.01;100677.53;5106373;28;20477;-67
2022/09/11 11:16:12;;;;;;;12.63;10.40;;;;;;;19.73;64.11;100675.03;5108127;28;20488;-66
2022/09/11 11:18:53;;;;;;;9.33;8.00;;;;;;;20.37;63.25;100682.44;5107910;28;20521;-67